sensor_id;sensor_type;location;lat;lon;timestamp;P1;durP1;ratioP1;P2;durP2;ratioP2
7919;SDS011;18778;47.610;9.776;2023-08-06T00:00:04;8.70;;;7.90;;
7919;SDS011;18778;47.610;9.776;2023-08-06T00:02:30;8.37;;;7.67;;
7919;SDS011;18778;47.610;9.776;2023-08-06T00:04:56;7.90;;;7.10;;
7919;SDS011;18778;47.610;9.776;2023-08-06T00:07:22;7.97;;;7.10;;
7919;SDS011;18778;47.610;9.776;2023-08-06T00:09:48;9.07;;;8.17;;
7919;SDS011;18778;47.610;9.776;2023-08-06T00:12:13;7.67;;;6.93;;
7919;SDS011;18778;47.610;9.776;2023-08-06T00:14:39;8.07;;;7.33;;
7919;SDS011;18778;47.610;9.776;2023-08-06T00:17:04;7.70;;;7.00;;
7919;SDS011;18778;47.610;9.776;2023-08-06T00:19:31;6.80;;;6.20;;
7919;SDS011;18778;47.610;9.776;2023-08-06T00:21:57;6.40;;;5.73;;
7919;SDS011;18778;47.610;9.776;2023-08-06T00:24:22;5.77;;;5.17;;
7919;SDS011;18778;47.610;9.776;2023-08-06T00:26:48;5.93;;;5.30;;
7919;SDS011;18778;47.610;9.776;2023-08-06T00:29:14;5.60;;;5.10;;
7919;SDS011;18778;47.610;9.776;2023-08-06T00:31:39;5.20;;;4.70;;
7919;SDS011;18778;47.610;9.776;2023-08-06T00:34:05;6.23;;;5.37;;
7919;SDS011;18778;47.610;9.776;2023-08-06T00:36:30;6.90;;;5.57;;
7919;SDS011;18778;47.610;9.776;2023-08-06T00:38:56;5.07;;;4.67;;
7919;SDS011;18778;47.610;9.776;2023-08-06T00:41:22;5.20;;;4.80;;
7919;SDS011;18778;47.610;9.776;2023-08-06T00:43:47;5.20;;;4.80;;
7919;SDS011;18778;47.610;9.776;2023-08-06T00:46:13;5.30;;;4.80;;
7919;SDS011;18778;47.610;9.776;2023-08-06T00:48:39;7.33;;;4.23;;
7919;SDS011;18778;47.610;9.776;2023-08-06T00:51:07;4.70;;;4.20;;
7919;SDS011;18778;47.610;9.776;2023-08-06T00:53:35;4.53;;;4.23;;
7919;SDS011;18778;47.610;9.776;2023-08-06T00:56:02;4.43;;;4.03;;
7919;SDS011;18778;47.610;9.776;2023-08-06T00:58:27;4.37;;;4.03;;
7919;SDS011;18778;47.610;9.776;2023-08-06T01:00:54;4.40;;;4.00;;
7919;SDS011;18778;47.610;9.776;2023-08-06T01:03:20;4.43;;;4.03;;
7919;SDS011;18778;47.610;9.776;2023-08-06T01:05:45;4.53;;;4.13;;
7919;SDS011;18778;47.610;9.776;2023-08-06T01:16:46;5.13;;;4.70;;
7919;SDS011;18778;47.610;9.776;2023-08-06T01:19:20;4.40;;;4.10;;
7919;SDS011;18778;47.610;9.776;2023-08-06T01:21:46;4.77;;;4.27;;
7919;SDS011;18778;47.610;9.776;2023-08-06T01:24:12;4.43;;;4.13;;
7919;SDS011;18778;47.610;9.776;2023-08-06T01:27:21;5.43;;;4.90;;
7919;SDS011;18778;47.610;9.776;2023-08-06T01:29:47;6.33;;;4.50;;
7919;SDS011;18778;47.610;9.776;2023-08-06T01:32:18;5.40;;;4.90;;
7919;SDS011;18778;47.610;9.776;2023-08-06T01:34:46;5.30;;;4.43;;
7919;SDS011;18778;47.610;9.776;2023-08-06T01:37:13;5.33;;;4.60;;
7919;SDS011;18778;47.610;9.776;2023-08-06T01:39:42;6.17;;;4.73;;
7919;SDS011;18778;47.610;9.776;2023-08-06T01:42:08;4.80;;;4.40;;
7919;SDS011;18778;47.610;9.776;2023-08-06T01:44:34;4.93;;;4.53;;
7919;SDS011;18778;47.610;9.776;2023-08-06T01:47:00;4.90;;;4.40;;
7919;SDS011;18778;47.610;9.776;2023-08-06T01:49:25;5.27;;;4.80;;
7919;SDS011;18778;47.610;9.776;2023-08-06T01:51:51;6.10;;;4.90;;
7919;SDS011;18778;47.610;9.776;2023-08-06T01:54:16;4.70;;;4.30;;
7919;SDS011;18778;47.610;9.776;2023-08-06T01:56:42;4.83;;;4.43;;
7919;SDS011;18778;47.610;9.776;2023-08-06T01:59:08;4.77;;;4.37;;
7919;SDS011;18778;47.610;9.776;2023-08-06T02:01:33;4.77;;;4.30;;
7919;SDS011;18778;47.610;9.776;2023-08-06T02:03:59;14.30;;;4.87;;
7919;SDS011;18778;47.610;9.776;2023-08-06T02:06:24;4.70;;;4.30;;
7919;SDS011;18778;47.610;9.776;2023-08-06T02:08:50;4.70;;;4.30;;
7919;SDS011;18778;47.610;9.776;2023-08-06T02:11:15;4.80;;;4.47;;
7919;SDS011;18778;47.610;9.776;2023-08-06T02:13:41;5.47;;;4.97;;
7919;SDS011;18778;47.610;9.776;2023-08-06T02:16:07;5.23;;;4.43;;
7919;SDS011;18778;47.610;9.776;2023-08-06T02:18:36;5.03;;;4.57;;
7919;SDS011;18778;47.610;9.776;2023-08-06T02:21:01;6.17;;;4.60;;
7919;SDS011;18778;47.610;9.776;2023-08-06T02:23:27;5.33;;;4.70;;
7919;SDS011;18778;47.610;9.776;2023-08-06T02:25:57;6.37;;;4.97;;
7919;SDS011;18778;47.610;9.776;2023-08-06T02:28:26;4.93;;;4.40;;
7919;SDS011;18778;47.610;9.776;2023-08-06T02:30:52;6.87;;;4.70;;
7919;SDS011;18778;47.610;9.776;2023-08-06T02:33:17;4.40;;;3.83;;
7919;SDS011;18778;47.610;9.776;2023-08-06T02:35:43;5.27;;;3.97;;
7919;SDS011;18778;47.610;9.776;2023-08-06T02:38:09;4.40;;;4.00;;
7919;SDS011;18778;47.610;9.776;2023-08-06T02:40:34;5.07;;;4.10;;
7919;SDS011;18778;47.610;9.776;2023-08-06T02:43:00;4.23;;;3.60;;
7919;SDS011;18778;47.610;9.776;2023-08-06T02:45:26;4.67;;;4.17;;
7919;SDS011;18778;47.610;9.776;2023-08-06T02:47:51;5.33;;;3.80;;
7919;SDS011;18778;47.610;9.776;2023-08-06T02:50:17;4.17;;;3.87;;
7919;SDS011;18778;47.610;9.776;2023-08-06T02:52:42;4.60;;;2.93;;
7919;SDS011;18778;47.610;9.776;2023-08-06T02:55:08;5.77;;;3.50;;
7919;SDS011;18778;47.610;9.776;2023-08-06T02:57:33;3.70;;;3.40;;
7919;SDS011;18778;47.610;9.776;2023-08-06T02:59:59;3.60;;;3.30;;
7919;SDS011;18778;47.610;9.776;2023-08-06T03:02:24;3.50;;;3.30;;
7919;SDS011;18778;47.610;9.776;2023-08-06T03:04:50;3.53;;;3.23;;
7919;SDS011;18778;47.610;9.776;2023-08-06T03:07:16;3.07;;;2.87;;
7919;SDS011;18778;47.610;9.776;2023-08-06T03:09:41;3.50;;;3.20;;
7919;SDS011;18778;47.610;9.776;2023-08-06T03:12:07;3.97;;;3.67;;
7919;SDS011;18778;47.610;9.776;2023-08-06T03:14:33;3.50;;;3.20;;
7919;SDS011;18778;47.610;9.776;2023-08-06T03:16:58;4.30;;;3.80;;
7919;SDS011;18778;47.610;9.776;2023-08-06T03:19:24;5.40;;;3.70;;
7919;SDS011;18778;47.610;9.776;2023-08-06T03:21:49;3.87;;;3.57;;
7919;SDS011;18778;47.610;9.776;2023-08-06T03:24:15;4.33;;;3.90;;
7919;SDS011;18778;47.610;9.776;2023-08-06T03:26:41;4.03;;;3.63;;
7919;SDS011;18778;47.610;9.776;2023-08-06T03:29:06;4.70;;;3.80;;
7919;SDS011;18778;47.610;9.776;2023-08-06T03:31:32;4.17;;;3.73;;
7919;SDS011;18778;47.610;9.776;2023-08-06T03:33:57;3.70;;;3.37;;
7919;SDS011;18778;47.610;9.776;2023-08-06T03:36:23;4.47;;;4.07;;
7919;SDS011;18778;47.610;9.776;2023-08-06T03:38:48;3.20;;;2.90;;
7919;SDS011;18778;47.610;9.776;2023-08-06T03:41:14;4.00;;;3.70;;
7919;SDS011;18778;47.610;9.776;2023-08-06T03:43:40;3.63;;;3.33;;
7919;SDS011;18778;47.610;9.776;2023-08-06T03:46:05;5.23;;;3.40;;
7919;SDS011;18778;47.610;9.776;2023-08-06T03:48:31;3.93;;;3.23;;
7919;SDS011;18778;47.610;9.776;2023-08-06T03:50:56;4.10;;;3.50;;
7919;SDS011;18778;47.610;9.776;2023-08-06T03:53:22;4.13;;;3.20;;
7919;SDS011;18778;47.610;9.776;2023-08-06T03:55:48;3.30;;;3.10;;
7919;SDS011;18778;47.610;9.776;2023-08-06T03:58:13;3.97;;;3.30;;
7919;SDS011;18778;47.610;9.776;2023-08-06T04:00:39;3.77;;;3.47;;
7919;SDS011;18778;47.610;9.776;2023-08-06T04:03:04;4.63;;;3.57;;
7919;SDS011;18778;47.610;9.776;2023-08-06T04:05:33;3.60;;;3.30;;
7919;SDS011;18778;47.610;9.776;2023-08-06T04:07:59;4.87;;;3.00;;
7919;SDS011;18778;47.610;9.776;2023-08-06T04:10:24;3.20;;;3.00;;
7919;SDS011;18778;47.610;9.776;2023-08-06T04:12:50;4.13;;;3.00;;
7919;SDS011;18778;47.610;9.776;2023-08-06T04:15:16;3.83;;;3.30;;
7919;SDS011;18778;47.610;9.776;2023-08-06T04:17:42;3.63;;;3.33;;
7919;SDS011;18778;47.610;9.776;2023-08-06T04:20:07;4.00;;;3.37;;
7919;SDS011;18778;47.610;9.776;2023-08-06T04:22:33;2.93;;;2.70;;
7919;SDS011;18778;47.610;9.776;2023-08-06T04:24:59;2.90;;;2.70;;
7919;SDS011;18778;47.610;9.776;2023-08-06T04:27:25;2.63;;;2.43;;
7919;SDS011;18778;47.610;9.776;2023-08-06T04:29:50;2.80;;;2.60;;
7919;SDS011;18778;47.610;9.776;2023-08-06T04:32:16;3.17;;;2.87;;
7919;SDS011;18778;47.610;9.776;2023-08-06T04:34:42;3.83;;;2.50;;
7919;SDS011;18778;47.610;9.776;2023-08-06T04:37:08;3.40;;;3.10;;
7919;SDS011;18778;47.610;9.776;2023-08-06T04:39:34;2.60;;;2.40;;
7919;SDS011;18778;47.610;9.776;2023-08-06T04:41:59;2.40;;;2.30;;
7919;SDS011;18778;47.610;9.776;2023-08-06T04:44:25;2.20;;;2.10;;
7919;SDS011;18778;47.610;9.776;2023-08-06T04:46:50;2.43;;;2.30;;
7919;SDS011;18778;47.610;9.776;2023-08-06T04:49:16;2.00;;;1.90;;
7919;SDS011;18778;47.610;9.776;2023-08-06T04:51:42;2.50;;;2.30;;
7919;SDS011;18778;47.610;9.776;2023-08-06T04:54:08;2.10;;;1.90;;
7919;SDS011;18778;47.610;9.776;2023-08-06T04:56:34;2.20;;;2.03;;
7919;SDS011;18778;47.610;9.776;2023-08-06T04:59:00;2.20;;;2.00;;
7919;SDS011;18778;47.610;9.776;2023-08-06T05:01:25;2.70;;;2.37;;
7919;SDS011;18778;47.610;9.776;2023-08-06T05:03:51;3.03;;;2.73;;
7919;SDS011;18778;47.610;9.776;2023-08-06T05:06:16;2.60;;;2.40;;
7919;SDS011;18778;47.610;9.776;2023-08-06T05:08:42;2.00;;;1.90;;
7919;SDS011;18778;47.610;9.776;2023-08-06T05:11:09;2.07;;;1.97;;
7919;SDS011;18778;47.610;9.776;2023-08-06T05:13:34;3.37;;;2.03;;
7919;SDS011;18778;47.610;9.776;2023-08-06T05:16:00;2.20;;;2.00;;
7919;SDS011;18778;47.610;9.776;2023-08-06T05:18:26;2.63;;;1.67;;
7919;SDS011;18778;47.610;9.776;2023-08-06T05:20:51;2.20;;;1.97;;
7919;SDS011;18778;47.610;9.776;2023-08-06T05:23:17;2.00;;;1.90;;
7919;SDS011;18778;47.610;9.776;2023-08-06T05:25:42;2.17;;;2.07;;
7919;SDS011;18778;47.610;9.776;2023-08-06T05:28:08;2.80;;;1.80;;
7919;SDS011;18778;47.610;9.776;2023-08-06T05:30:34;4.13;;;2.13;;
7919;SDS011;18778;47.610;9.776;2023-08-06T05:33:03;2.07;;;1.90;;
7919;SDS011;18778;47.610;9.776;2023-08-06T05:35:29;1.80;;;1.57;;
7919;SDS011;18778;47.610;9.776;2023-08-06T05:37:54;2.27;;;2.07;;
7919;SDS011;18778;47.610;9.776;2023-08-06T05:40:20;2.77;;;1.90;;
7919;SDS011;18778;47.610;9.776;2023-08-06T05:42:45;1.70;;;1.60;;
7919;SDS011;18778;47.610;9.776;2023-08-06T05:45:11;2.90;;;1.20;;
7919;SDS011;18778;47.610;9.776;2023-08-06T05:47:37;1.60;;;1.30;;
7919;SDS011;18778;47.610;9.776;2023-08-06T05:50:03;1.47;;;1.20;;
7919;SDS011;18778;47.610;9.776;2023-08-06T05:52:28;3.10;;;1.43;;
7919;SDS011;18778;47.610;9.776;2023-08-06T05:54:54;2.50;;;1.33;;
7919;SDS011;18778;47.610;9.776;2023-08-06T05:57:20;2.90;;;1.20;;
7919;SDS011;18778;47.610;9.776;2023-08-06T05:59:45;2.97;;;1.40;;
7919;SDS011;18778;47.610;9.776;2023-08-06T06:02:11;2.60;;;1.03;;
7919;SDS011;18778;47.610;9.776;2023-08-06T06:04:37;1.40;;;1.27;;
7919;SDS011;18778;47.610;9.776;2023-08-06T06:07:02;4.57;;;1.40;;
7919;SDS011;18778;47.610;9.776;2023-08-06T06:09:28;1.33;;;1.00;;
7919;SDS011;18778;47.610;9.776;2023-08-06T06:11:54;1.70;;;1.00;;
7919;SDS011;18778;47.610;9.776;2023-08-06T06:14:19;1.03;;;0.90;;
7919;SDS011;18778;47.610;9.776;2023-08-06T06:16:45;1.97;;;1.10;;
7919;SDS011;18778;47.610;9.776;2023-08-06T06:19:11;2.50;;;1.20;;
7919;SDS011;18778;47.610;9.776;2023-08-06T06:21:37;0.97;;;0.90;;
7919;SDS011;18778;47.610;9.776;2023-08-06T06:24:04;2.53;;;1.00;;
7919;SDS011;18778;47.610;9.776;2023-08-06T06:26:30;1.80;;;1.00;;
7919;SDS011;18778;47.610;9.776;2023-08-06T06:28:56;5.40;;;1.23;;
7919;SDS011;18778;47.610;9.776;2023-08-06T06:31:22;3.23;;;1.20;;
7919;SDS011;18778;47.610;9.776;2023-08-06T06:33:48;3.63;;;1.40;;
7919;SDS011;18778;47.610;9.776;2023-08-06T06:36:13;1.67;;;0.93;;
7919;SDS011;18778;47.610;9.776;2023-08-06T06:38:39;1.10;;;1.00;;
7919;SDS011;18778;47.610;9.776;2023-08-06T06:41:05;2.73;;;1.10;;
7919;SDS011;18778;47.610;9.776;2023-08-06T06:43:31;1.07;;;0.90;;
7919;SDS011;18778;47.610;9.776;2023-08-06T06:45:56;2.73;;;0.90;;
7919;SDS011;18778;47.610;9.776;2023-08-06T06:48:27;1.40;;;1.00;;
7919;SDS011;18778;47.610;9.776;2023-08-06T06:50:58;3.07;;;1.30;;
7919;SDS011;18778;47.610;9.776;2023-08-06T06:53:24;3.10;;;1.10;;
7919;SDS011;18778;47.610;9.776;2023-08-06T06:55:55;2.60;;;1.07;;
7919;SDS011;18778;47.610;9.776;2023-08-06T06:58:26;1.13;;;0.90;;
7919;SDS011;18778;47.610;9.776;2023-08-06T07:00:51;1.80;;;0.77;;
7919;SDS011;18778;47.610;9.776;2023-08-06T07:03:17;1.70;;;0.90;;
7919;SDS011;18778;47.610;9.776;2023-08-06T07:05:43;2.97;;;1.10;;
7919;SDS011;18778;47.610;9.776;2023-08-06T07:08:09;2.07;;;0.70;;
7919;SDS011;18778;47.610;9.776;2023-08-06T07:10:35;1.27;;;0.90;;
7919;SDS011;18778;47.610;9.776;2023-08-06T07:13:01;0.90;;;0.90;;
7919;SDS011;18778;47.610;9.776;2023-08-06T07:15:26;1.70;;;0.90;;
7919;SDS011;18778;47.610;9.776;2023-08-06T07:17:52;2.30;;;0.90;;
7919;SDS011;18778;47.610;9.776;2023-08-06T07:20:17;1.73;;;0.90;;
7919;SDS011;18778;47.610;9.776;2023-08-06T07:22:43;1.03;;;0.90;;
7919;SDS011;18778;47.610;9.776;2023-08-06T07:25:09;0.80;;;0.80;;
7919;SDS011;18778;47.610;9.776;2023-08-06T07:27:35;1.80;;;0.83;;
7919;SDS011;18778;47.610;9.776;2023-08-06T07:30:01;1.43;;;1.10;;
7919;SDS011;18778;47.610;9.776;2023-08-06T07:32:27;1.80;;;0.80;;
7919;SDS011;18778;47.610;9.776;2023-08-06T07:34:55;1.03;;;0.70;;
7919;SDS011;18778;47.610;9.776;2023-08-06T07:37:24;2.07;;;0.87;;
7919;SDS011;18778;47.610;9.776;2023-08-06T07:39:50;4.80;;;1.30;;
7919;SDS011;18778;47.610;9.776;2023-08-06T07:42:15;0.97;;;0.87;;
7919;SDS011;18778;47.610;9.776;2023-08-06T07:44:41;1.17;;;0.73;;
7919;SDS011;18778;47.610;9.776;2023-08-06T07:47:06;0.73;;;0.73;;
7919;SDS011;18778;47.610;9.776;2023-08-06T07:49:32;0.80;;;0.80;;
7919;SDS011;18778;47.610;9.776;2023-08-06T07:51:58;1.40;;;1.07;;
7919;SDS011;18778;47.610;9.776;2023-08-06T07:54:25;0.70;;;0.70;;
7919;SDS011;18778;47.610;9.776;2023-08-06T07:56:50;0.80;;;0.80;;
7919;SDS011;18778;47.610;9.776;2023-08-06T07:59:16;1.57;;;0.73;;
7919;SDS011;18778;47.610;9.776;2023-08-06T08:01:41;1.30;;;0.90;;
7919;SDS011;18778;47.610;9.776;2023-08-06T08:04:07;1.07;;;0.70;;
7919;SDS011;18778;47.610;9.776;2023-08-06T08:06:33;1.67;;;0.93;;
7919;SDS011;18778;47.610;9.776;2023-08-06T08:08:58;1.07;;;0.97;;
7919;SDS011;18778;47.610;9.776;2023-08-06T08:11:25;0.90;;;0.90;;
7919;SDS011;18778;47.610;9.776;2023-08-06T08:13:51;0.87;;;0.87;;
7919;SDS011;18778;47.610;9.776;2023-08-06T08:16:16;2.20;;;0.97;;
7919;SDS011;18778;47.610;9.776;2023-08-06T08:18:42;3.50;;;0.93;;
7919;SDS011;18778;47.610;9.776;2023-08-06T08:21:07;0.97;;;0.90;;
7919;SDS011;18778;47.610;9.776;2023-08-06T08:23:33;1.67;;;0.70;;
7919;SDS011;18778;47.610;9.776;2023-08-06T08:25:58;2.33;;;0.90;;
7919;SDS011;18778;47.610;9.776;2023-08-06T08:28:24;1.33;;;0.80;;
7919;SDS011;18778;47.610;9.776;2023-08-06T08:30:50;1.53;;;0.90;;
7919;SDS011;18778;47.610;9.776;2023-08-06T08:33:15;0.83;;;0.83;;
7919;SDS011;18778;47.610;9.776;2023-08-06T08:35:41;1.80;;;1.00;;
7919;SDS011;18778;47.610;9.776;2023-08-06T08:38:06;1.73;;;0.80;;
7919;SDS011;18778;47.610;9.776;2023-08-06T08:40:32;1.37;;;0.83;;
7919;SDS011;18778;47.610;9.776;2023-08-06T08:43:02;0.80;;;0.77;;
7919;SDS011;18778;47.610;9.776;2023-08-06T08:45:29;1.67;;;1.00;;
7919;SDS011;18778;47.610;9.776;2023-08-06T08:47:54;3.50;;;1.00;;
7919;SDS011;18778;47.610;9.776;2023-08-06T08:50:20;1.80;;;0.97;;
7919;SDS011;18778;47.610;9.776;2023-08-06T08:52:46;1.17;;;0.80;;
7919;SDS011;18778;47.610;9.776;2023-08-06T08:55:14;2.40;;;1.00;;
7919;SDS011;18778;47.610;9.776;2023-08-06T08:57:40;2.83;;;0.90;;
7919;SDS011;18778;47.610;9.776;2023-08-06T09:00:07;1.53;;;1.00;;
7919;SDS011;18778;47.610;9.776;2023-08-06T09:02:33;1.07;;;0.97;;
7919;SDS011;18778;47.610;9.776;2023-08-06T09:04:59;1.60;;;0.70;;
7919;SDS011;18778;47.610;9.776;2023-08-06T09:07:27;1.87;;;0.93;;
7919;SDS011;18778;47.610;9.776;2023-08-06T09:10:01;1.00;;;1.00;;
7919;SDS011;18778;47.610;9.776;2023-08-06T09:12:30;0.80;;;0.80;;
7919;SDS011;18778;47.610;9.776;2023-08-06T09:14:56;0.70;;;0.70;;
7919;SDS011;18778;47.610;9.776;2023-08-06T09:17:23;2.00;;;1.00;;
7919;SDS011;18778;47.610;9.776;2023-08-06T09:19:49;1.70;;;1.00;;
7919;SDS011;18778;47.610;9.776;2023-08-06T09:22:14;0.90;;;0.90;;
7919;SDS011;18778;47.610;9.776;2023-08-06T09:24:43;0.93;;;0.87;;
7919;SDS011;18778;47.610;9.776;2023-08-06T09:27:12;1.37;;;1.10;;
7919;SDS011;18778;47.610;9.776;2023-08-06T09:29:45;2.50;;;0.80;;
7919;SDS011;18778;47.610;9.776;2023-08-06T09:32:14;2.03;;;0.87;;
7919;SDS011;18778;47.610;9.776;2023-08-06T09:34:41;0.97;;;0.70;;
7919;SDS011;18778;47.610;9.776;2023-08-06T09:37:08;0.70;;;0.70;;
7919;SDS011;18778;47.610;9.776;2023-08-06T09:39:35;1.13;;;0.60;;
7919;SDS011;18778;47.610;9.776;2023-08-06T09:42:03;1.17;;;0.83;;
7919;SDS011;18778;47.610;9.776;2023-08-06T09:44:30;1.53;;;0.70;;
7919;SDS011;18778;47.610;9.776;2023-08-06T09:47:03;1.00;;;1.00;;
7919;SDS011;18778;47.610;9.776;2023-08-06T09:51:58;0.93;;;0.80;;
7919;SDS011;18778;47.610;9.776;2023-08-06T09:54:25;0.70;;;0.70;;
7919;SDS011;18778;47.610;9.776;2023-08-06T09:56:52;0.80;;;0.80;;
7919;SDS011;18778;47.610;9.776;2023-08-06T09:59:18;0.93;;;0.80;;
7919;SDS011;18778;47.610;9.776;2023-08-06T10:01:44;2.67;;;0.70;;
7919;SDS011;18778;47.610;9.776;2023-08-06T10:04:11;0.70;;;0.70;;
7919;SDS011;18778;47.610;9.776;2023-08-06T10:06:41;0.70;;;0.70;;
7919;SDS011;18778;47.610;9.776;2023-08-06T10:09:08;0.60;;;0.60;;
7919;SDS011;18778;47.610;9.776;2023-08-06T10:11:34;0.73;;;0.73;;
7919;SDS011;18778;47.610;9.776;2023-08-06T10:14:09;1.97;;;0.80;;
7919;SDS011;18778;47.610;9.776;2023-08-06T10:16:41;0.60;;;0.60;;
7919;SDS011;18778;47.610;9.776;2023-08-06T10:19:08;0.70;;;0.70;;
7919;SDS011;18778;47.610;9.776;2023-08-06T10:21:37;0.70;;;0.70;;
7919;SDS011;18778;47.610;9.776;2023-08-06T10:24:03;1.73;;;0.70;;
7919;SDS011;18778;47.610;9.776;2023-08-06T10:26:34;0.70;;;0.70;;
7919;SDS011;18778;47.610;9.776;2023-08-06T10:29:00;0.70;;;0.70;;
7919;SDS011;18778;47.610;9.776;2023-08-06T10:34:21;1.37;;;0.77;;
7919;SDS011;18778;47.610;9.776;2023-08-06T10:36:46;0.73;;;0.73;;
7919;SDS011;18778;47.610;9.776;2023-08-06T10:39:15;0.70;;;0.70;;
7919;SDS011;18778;47.610;9.776;2023-08-06T10:41:44;0.60;;;0.60;;
7919;SDS011;18778;47.610;9.776;2023-08-06T10:44:09;0.70;;;0.70;;
7919;SDS011;18778;47.610;9.776;2023-08-06T10:46:36;0.70;;;0.70;;
7919;SDS011;18778;47.610;9.776;2023-08-06T10:49:03;0.70;;;0.70;;
7919;SDS011;18778;47.610;9.776;2023-08-06T10:51:29;1.17;;;0.73;;
7919;SDS011;18778;47.610;9.776;2023-08-06T10:53:55;0.90;;;0.90;;
7919;SDS011;18778;47.610;9.776;2023-08-06T10:56:23;0.83;;;0.83;;
7919;SDS011;18778;47.610;9.776;2023-08-06T10:59:04;0.60;;;0.60;;
7919;SDS011;18778;47.610;9.776;2023-08-06T11:01:29;1.03;;;0.70;;
7919;SDS011;18778;47.610;9.776;2023-08-06T11:04:00;0.57;;;0.57;;
7919;SDS011;18778;47.610;9.776;2023-08-06T11:06:27;0.60;;;0.60;;
7919;SDS011;18778;47.610;9.776;2023-08-06T11:08:53;0.70;;;0.70;;
7919;SDS011;18778;47.610;9.776;2023-08-06T11:11:20;2.10;;;0.70;;
7919;SDS011;18778;47.610;9.776;2023-08-06T11:13:48;0.80;;;0.80;;
7919;SDS011;18778;47.610;9.776;2023-08-06T11:16:16;0.60;;;0.60;;
7919;SDS011;18778;47.610;9.776;2023-08-06T11:18:43;0.60;;;0.60;;
7919;SDS011;18778;47.610;9.776;2023-08-06T11:21:10;0.70;;;0.70;;
7919;SDS011;18778;47.610;9.776;2023-08-06T11:23:36;0.60;;;0.60;;
7919;SDS011;18778;47.610;9.776;2023-08-06T11:26:02;1.00;;;0.60;;
7919;SDS011;18778;47.610;9.776;2023-08-06T11:28:28;0.80;;;0.80;;
7919;SDS011;18778;47.610;9.776;2023-08-06T11:30:54;0.60;;;0.60;;
7919;SDS011;18778;47.610;9.776;2023-08-06T11:33:25;0.73;;;0.60;;
7919;SDS011;18778;47.610;9.776;2023-08-06T11:35:52;0.93;;;0.70;;
7919;SDS011;18778;47.610;9.776;2023-08-06T11:38:19;0.60;;;0.60;;
7919;SDS011;18778;47.610;9.776;2023-08-06T11:40:45;2.10;;;0.73;;
7919;SDS011;18778;47.610;9.776;2023-08-06T11:43:11;0.70;;;0.70;;
7919;SDS011;18778;47.610;9.776;2023-08-06T11:45:38;0.50;;;0.50;;
7919;SDS011;18778;47.610;9.776;2023-08-06T11:48:03;0.60;;;0.60;;
7919;SDS011;18778;47.610;9.776;2023-08-06T11:50:30;0.57;;;0.57;;
7919;SDS011;18778;47.610;9.776;2023-08-06T11:52:56;0.77;;;0.77;;
7919;SDS011;18778;47.610;9.776;2023-08-06T11:55:23;0.60;;;0.60;;
7919;SDS011;18778;47.610;9.776;2023-08-06T11:57:50;0.83;;;0.63;;
7919;SDS011;18778;47.610;9.776;2023-08-06T12:00:16;0.53;;;0.53;;
7919;SDS011;18778;47.610;9.776;2023-08-06T12:02:44;0.60;;;0.60;;
7919;SDS011;18778;47.610;9.776;2023-08-06T12:05:15;0.80;;;0.57;;
7919;SDS011;18778;47.610;9.776;2023-08-06T12:07:42;0.47;;;0.47;;
7919;SDS011;18778;47.610;9.776;2023-08-06T12:10:18;0.60;;;0.60;;
7919;SDS011;18778;47.610;9.776;2023-08-06T12:12:45;1.80;;;0.60;;
7919;SDS011;18778;47.610;9.776;2023-08-06T12:15:11;0.50;;;0.50;;
7919;SDS011;18778;47.610;9.776;2023-08-06T12:17:37;0.70;;;0.70;;
7919;SDS011;18778;47.610;9.776;2023-08-06T12:20:04;0.60;;;0.60;;
7919;SDS011;18778;47.610;9.776;2023-08-06T12:22:31;0.50;;;0.50;;
7919;SDS011;18778;47.610;9.776;2023-08-06T12:25:00;0.50;;;0.50;;
7919;SDS011;18778;47.610;9.776;2023-08-06T12:27:37;0.60;;;0.60;;
7919;SDS011;18778;47.610;9.776;2023-08-06T12:30:04;0.60;;;0.60;;
7919;SDS011;18778;47.610;9.776;2023-08-06T12:32:31;0.53;;;0.50;;
7919;SDS011;18778;47.610;9.776;2023-08-06T12:34:56;1.60;;;0.70;;
7919;SDS011;18778;47.610;9.776;2023-08-06T12:37:23;0.60;;;0.60;;
7919;SDS011;18778;47.610;9.776;2023-08-06T12:39:50;0.50;;;0.50;;
7919;SDS011;18778;47.610;9.776;2023-08-06T12:42:15;0.50;;;0.50;;
7919;SDS011;18778;47.610;9.776;2023-08-06T12:44:41;0.50;;;0.50;;
7919;SDS011;18778;47.610;9.776;2023-08-06T12:47:07;0.63;;;0.63;;
7919;SDS011;18778;47.610;9.776;2023-08-06T12:49:32;0.60;;;0.60;;
7919;SDS011;18778;47.610;9.776;2023-08-06T12:51:58;0.50;;;0.50;;
7919;SDS011;18778;47.610;9.776;2023-08-06T12:54:27;0.50;;;0.50;;
7919;SDS011;18778;47.610;9.776;2023-08-06T12:56:53;0.53;;;0.53;;
7919;SDS011;18778;47.610;9.776;2023-08-06T12:59:19;0.80;;;0.60;;
7919;SDS011;18778;47.610;9.776;2023-08-06T13:01:44;0.80;;;0.77;;
7919;SDS011;18778;47.610;9.776;2023-08-06T13:04:10;0.60;;;0.60;;
7919;SDS011;18778;47.610;9.776;2023-08-06T13:06:37;0.50;;;0.50;;
7919;SDS011;18778;47.610;9.776;2023-08-06T13:09:04;3.13;;;0.50;;
7919;SDS011;18778;47.610;9.776;2023-08-06T13:11:30;0.60;;;0.60;;
7919;SDS011;18778;47.610;9.776;2023-08-06T13:13:58;0.53;;;0.53;;
7919;SDS011;18778;47.610;9.776;2023-08-06T13:16:28;0.50;;;0.50;;
7919;SDS011;18778;47.610;9.776;2023-08-06T13:18:54;0.60;;;0.60;;
7919;SDS011;18778;47.610;9.776;2023-08-06T13:21:20;0.60;;;0.60;;
7919;SDS011;18778;47.610;9.776;2023-08-06T13:23:45;0.60;;;0.60;;
7919;SDS011;18778;47.610;9.776;2023-08-06T13:26:12;0.60;;;0.60;;
7919;SDS011;18778;47.610;9.776;2023-08-06T13:28:38;0.73;;;0.73;;
7919;SDS011;18778;47.610;9.776;2023-08-06T13:31:04;0.63;;;0.63;;
7919;SDS011;18778;47.610;9.776;2023-08-06T13:33:29;0.50;;;0.50;;
7919;SDS011;18778;47.610;9.776;2023-08-06T13:35:55;0.77;;;0.77;;
7919;SDS011;18778;47.610;9.776;2023-08-06T13:38:20;0.60;;;0.60;;
7919;SDS011;18778;47.610;9.776;2023-08-06T13:40:46;0.70;;;0.50;;
7919;SDS011;18778;47.610;9.776;2023-08-06T13:43:12;0.77;;;0.60;;
7919;SDS011;18778;47.610;9.776;2023-08-06T13:45:40;0.70;;;0.70;;
7919;SDS011;18778;47.610;9.776;2023-08-06T13:48:06;0.40;;;0.40;;
7919;SDS011;18778;47.610;9.776;2023-08-06T13:50:32;0.70;;;0.70;;
7919;SDS011;18778;47.610;9.776;2023-08-06T13:52:57;0.63;;;0.63;;
7919;SDS011;18778;47.610;9.776;2023-08-06T13:55:23;0.67;;;0.67;;
7919;SDS011;18778;47.610;9.776;2023-08-06T13:57:48;1.60;;;0.80;;
7919;SDS011;18778;47.610;9.776;2023-08-06T14:00:14;0.60;;;0.60;;
7919;SDS011;18778;47.610;9.776;2023-08-06T14:02:40;0.60;;;0.60;;
7919;SDS011;18778;47.610;9.776;2023-08-06T14:05:08;0.97;;;0.90;;
7919;SDS011;18778;47.610;9.776;2023-08-06T14:07:34;0.80;;;0.80;;
7919;SDS011;18778;47.610;9.776;2023-08-06T14:10:00;0.73;;;0.73;;
7919;SDS011;18778;47.610;9.776;2023-08-06T14:12:26;0.73;;;0.73;;
7919;SDS011;18778;47.610;9.776;2023-08-06T14:14:51;0.87;;;0.70;;
7919;SDS011;18778;47.610;9.776;2023-08-06T14:17:17;0.70;;;0.70;;
7919;SDS011;18778;47.610;9.776;2023-08-06T14:19:42;0.70;;;0.70;;
7919;SDS011;18778;47.610;9.776;2023-08-06T14:22:08;0.90;;;0.80;;
7919;SDS011;18778;47.610;9.776;2023-08-06T14:24:33;0.70;;;0.60;;
7919;SDS011;18778;47.610;9.776;2023-08-06T14:26:59;1.13;;;0.70;;
7919;SDS011;18778;47.610;9.776;2023-08-06T14:29:25;0.80;;;0.80;;
7919;SDS011;18778;47.610;9.776;2023-08-06T14:31:50;0.60;;;0.60;;
7919;SDS011;18778;47.610;9.776;2023-08-06T14:34:16;0.83;;;0.83;;
7919;SDS011;18778;47.610;9.776;2023-08-06T14:36:42;0.60;;;0.60;;
7919;SDS011;18778;47.610;9.776;2023-08-06T14:39:07;0.97;;;0.70;;
7919;SDS011;18778;47.610;9.776;2023-08-06T14:41:33;0.60;;;0.60;;
7919;SDS011;18778;47.610;9.776;2023-08-06T14:43:58;2.13;;;0.80;;
7919;SDS011;18778;47.610;9.776;2023-08-06T14:46:25;1.60;;;1.00;;
7919;SDS011;18778;47.610;9.776;2023-08-06T14:48:50;0.57;;;0.57;;
7919;SDS011;18778;47.610;9.776;2023-08-06T14:51:16;0.60;;;0.60;;
7919;SDS011;18778;47.610;9.776;2023-08-06T14:53:44;0.83;;;0.70;;
7919;SDS011;18778;47.610;9.776;2023-08-06T14:56:09;0.60;;;0.60;;
7919;SDS011;18778;47.610;9.776;2023-08-06T14:58:35;1.00;;;0.60;;
7919;SDS011;18778;47.610;9.776;2023-08-06T15:01:01;1.43;;;0.70;;
7919;SDS011;18778;47.610;9.776;2023-08-06T15:03:26;1.50;;;0.73;;
7919;SDS011;18778;47.610;9.776;2023-08-06T15:05:53;0.80;;;0.80;;
7919;SDS011;18778;47.610;9.776;2023-08-06T15:08:18;0.87;;;0.80;;